sensor_id;sensor_type;location;lat;lon;timestamp;pressure;altitude;pressure_sealevel;temperature;humidity
37066;BME280;22981;43.080;25.550;2022-12-10T00:01:37;98875.55;;;5.03;89.90
37066;BME280;22981;43.080;25.550;2022-12-10T00:04:08;98887.69;;;5.02;89.94
37066;BME280;22981;43.080;25.550;2022-12-10T00:06:41;98879.26;;;4.92;89.83
37066;BME280;22981;43.080;25.550;2022-12-10T00:09:17;98897.43;;;4.88;89.90
37066;BME280;22981;43.080;25.550;2022-12-10T00:11:49;98878.59;;;4.76;89.84
37066;BME280;22981;43.080;25.550;2022-12-10T00:14:18;98898.91;;;4.80;89.95
37066;BME280;22981;43.080;25.550;2022-12-10T00:16:50;98886.93;;;4.73;89.89
37066;BME280;22981;43.080;25.550;2022-12-10T00:19:21;98881.63;;;4.73;90.05
37066;BME280;22981;43.080;25.550;2022-12-10T00:21:58;98878.30;;;4.75;90.10
37066;BME280;22981;43.080;25.550;2022-12-10T00:24:34;98871.33;;;4.74;90.00
37066;BME280;22981;43.080;25.550;2022-12-10T00:27:09;98874.31;;;4.75;90.03
37066;BME280;22981;43.080;25.550;2022-12-10T00:30:01;98871.16;;;4.76;89.93
37066;BME280;22981;43.080;25.550;2022-12-10T00:32:34;98874.31;;;4.75;89.97
37066;BME280;22981;43.080;25.550;2022-12-10T00:35:07;98867.98;;;4.76;89.97
37066;BME280;22981;43.080;25.550;2022-12-10T00:37:45;98870.64;;;4.76;89.94
37066;BME280;22981;43.080;25.550;2022-12-10T00:40:20;98868.80;;;4.77;89.92
37066;BME280;22981;43.080;25.550;2022-12-10T00:42:56;98870.22;;;4.80;89.93
37066;BME280;22981;43.080;25.550;2022-12-10T00:58:53;98861.58;;;4.82;89.42
37066;BME280;22981;43.080;25.550;2022-12-10T01:15:40;98842.45;;;4.93;89.28
37066;BME280;22981;43.080;25.550;2022-12-10T01:21:43;98854.10;;;4.98;89.23
37066;BME280;22981;43.080;25.550;2022-12-10T01:31:16;98846.53;;;4.95;89.28
37066;BME280;22981;43.080;25.550;2022-12-10T01:33:51;98853.07;;;4.93;89.32
37066;BME280;22981;43.080;25.550;2022-12-10T03:17:21;98817.15;;;5.27;89.87
37066;BME280;22981;43.080;25.550;2022-12-10T03:19:50;98811.33;;;5.35;89.91
37066;BME280;22981;43.080;25.550;2022-12-10T03:22:20;98809.72;;;5.40;89.85
37066;BME280;22981;43.080;25.550;2022-12-10T03:24:48;98800.33;;;5.44;89.78
37066;BME280;22981;43.080;25.550;2022-12-10T03:27:20;98795.42;;;5.41;89.80
37066;BME280;22981;43.080;25.550;2022-12-10T03:29:50;98787.55;;;5.37;89.86
37066;BME280;22981;43.080;25.550;2022-12-10T03:32:20;98788.98;;;5.33;89.97
37066;BME280;22981;43.080;25.550;2022-12-10T03:34:50;98784.06;;;5.30;89.96
37066;BME280;22981;43.080;25.550;2022-12-10T03:37:19;98789.06;;;5.29;90.09
37066;BME280;22981;43.080;25.550;2022-12-10T03:39:47;98788.55;;;5.30;90.09
37066;BME280;22981;43.080;25.550;2022-12-10T03:42:15;98787.44;;;5.28;90.08
37066;BME280;22981;43.080;25.550;2022-12-10T03:44:43;98793.05;;;5.29;90.06
37066;BME280;22981;43.080;25.550;2022-12-10T03:47:13;98783.98;;;5.27;90.06
37066;BME280;22981;43.080;25.550;2022-12-10T03:49:42;98791.42;;;5.28;90.13
37066;BME280;22981;43.080;25.550;2022-12-10T03:52:10;98780.98;;;5.26;90.23
37066;BME280;22981;43.080;25.550;2022-12-10T03:54:38;98791.13;;;5.27;90.31
37066;BME280;22981;43.080;25.550;2022-12-10T03:57:05;98795.19;;;5.30;90.34
37066;BME280;22981;43.080;25.550;2022-12-10T03:59:33;98787.86;;;5.32;90.40
37066;BME280;22981;43.080;25.550;2022-12-10T04:02:01;98792.23;;;5.35;90.45
37066;BME280;22981;43.080;25.550;2022-12-10T04:04:29;98791.53;;;5.37;90.53
37066;BME280;22981;43.080;25.550;2022-12-10T04:06:57;98785.61;;;5.42;90.61
37066;BME280;22981;43.080;25.550;2022-12-10T04:09:24;98769.89;;;5.47;90.69
37066;BME280;22981;43.080;25.550;2022-12-10T04:11:57;98772.27;;;5.52;90.69
37066;BME280;22981;43.080;25.550;2022-12-10T04:14:25;98772.97;;;5.57;90.69
37066;BME280;22981;43.080;25.550;2022-12-10T04:17:12;98786.34;;;5.60;90.67
37066;BME280;22981;43.080;25.550;2022-12-10T04:19:39;98783.89;;;5.58;90.67
37066;BME280;22981;43.080;25.550;2022-12-10T04:22:09;98778.07;;;5.59;90.69
37066;BME280;22981;43.080;25.550;2022-12-10T04:24:55;98784.83;;;5.61;90.77
37066;BME280;22981;43.080;25.550;2022-12-10T04:27:40;98786.53;;;5.65;90.81
37066;BME280;22981;43.080;25.550;2022-12-10T04:30:10;98786.05;;;5.65;90.77
37066;BME280;22981;43.080;25.550;2022-12-10T04:32:37;98792.48;;;5.67;90.84
37066;BME280;22981;43.080;25.550;2022-12-10T04:35:06;98789.09;;;5.69;90.94
37066;BME280;22981;43.080;25.550;2022-12-10T04:37:33;98792.67;;;5.72;91.03
37066;BME280;22981;43.080;25.550;2022-12-10T04:40:01;98787.14;;;5.73;91.06
37066;BME280;22981;43.080;25.550;2022-12-10T04:42:29;98792.05;;;5.76;91.10
37066;BME280;22981;43.080;25.550;2022-12-10T04:44:56;98785.53;;;5.79;91.19
37066;BME280;22981;43.080;25.550;2022-12-10T04:47:24;98790.74;;;5.83;91.22
37066;BME280;22981;43.080;25.550;2022-12-10T04:49:52;98793.30;;;5.87;91.28
37066;BME280;22981;43.080;25.550;2022-12-10T04:52:19;98783.27;;;5.89;91.28
37066;BME280;22981;43.080;25.550;2022-12-10T04:54:47;98787.88;;;5.91;91.32
37066;BME280;22981;43.080;25.550;2022-12-10T04:57:14;98786.06;;;5.92;91.35
37066;BME280;22981;43.080;25.550;2022-12-10T04:59:42;98784.59;;;5.89;91.36
37066;BME280;22981;43.080;25.550;2022-12-10T05:02:09;98779.80;;;5.89;91.46
37066;BME280;22981;43.080;25.550;2022-12-10T05:04:38;98782.23;;;5.90;91.60
37066;BME280;22981;43.080;25.550;2022-12-10T05:07:06;98790.05;;;5.92;91.63
37066;BME280;22981;43.080;25.550;2022-12-10T05:09:33;98789.53;;;5.92;91.68
37066;BME280;22981;43.080;25.550;2022-12-10T05:12:01;98786.14;;;5.94;91.70
37066;BME280;22981;43.080;25.550;2022-12-10T05:14:29;98793.71;;;5.97;91.73
37066;BME280;22981;43.080;25.550;2022-12-10T05:16:57;98789.92;;;6.02;91.73
37066;BME280;22981;43.080;25.550;2022-12-10T05:19:25;98785.85;;;6.00;91.75
37066;BME280;22981;43.080;25.550;2022-12-10T05:21:55;98805.95;;;6.12;91.80
37066;BME280;22981;43.080;25.550;2022-12-10T05:24:41;98794.20;;;6.17;91.86
37066;BME280;22981;43.080;25.550;2022-12-10T05:27:08;98797.05;;;6.22;91.83
37066;BME280;22981;43.080;25.550;2022-12-10T05:29:36;98806.44;;;6.24;91.82
37066;BME280;22981;43.080;25.550;2022-12-10T05:32:04;98810.94;;;6.24;91.79
37066;BME280;22981;43.080;25.550;2022-12-10T05:34:32;98814.33;;;6.22;91.85
37066;BME280;22981;43.080;25.550;2022-12-10T05:36:59;98820.27;;;6.17;91.86
37066;BME280;22981;43.080;25.550;2022-12-10T05:39:27;98819.56;;;6.13;91.94
37066;BME280;22981;43.080;25.550;2022-12-10T05:41:55;98824.77;;;6.10;92.03
37066;BME280;22981;43.080;25.550;2022-12-10T05:44:22;98823.14;;;6.09;92.06
37066;BME280;22981;43.080;25.550;2022-12-10T05:46:50;98824.17;;;6.08;92.16
37066;BME280;22981;43.080;25.550;2022-12-10T05:49:19;98810.04;;;6.08;92.23
37066;BME280;22981;43.080;25.550;2022-12-10T05:51:46;98814.88;;;6.08;92.22
37066;BME280;22981;43.080;25.550;2022-12-10T05:54:14;98818.13;;;6.10;92.24
37066;BME280;22981;43.080;25.550;2022-12-10T05:56:43;98818.13;;;6.10;92.26
37066;BME280;22981;43.080;25.550;2022-12-10T05:59:12;98817.91;;;6.12;92.33
37066;BME280;22981;43.080;25.550;2022-12-10T06:01:39;98822.52;;;6.14;92.36
37066;BME280;22981;43.080;25.550;2022-12-10T06:04:08;98813.52;;;6.15;92.35
37066;BME280;22981;43.080;25.550;2022-12-10T06:06:37;98823.92;;;6.16;92.39
37066;BME280;22981;43.080;25.550;2022-12-10T06:09:06;98820.34;;;6.20;92.39
37066;BME280;22981;43.080;25.550;2022-12-10T06:11:34;98816.36;;;6.20;92.37
37066;BME280;22981;43.080;25.550;2022-12-10T06:14:02;98820.16;;;6.21;92.44
37066;BME280;22981;43.080;25.550;2022-12-10T06:16:29;98814.11;;;6.23;92.52
37066;BME280;22981;43.080;25.550;2022-12-10T06:18:57;98819.95;;;6.30;92.61
37066;BME280;22981;43.080;25.550;2022-12-10T06:21:25;98806.33;;;6.35;92.71
37066;BME280;22981;43.080;25.550;2022-12-10T06:23:53;98820.84;;;6.39;92.70
37066;BME280;22981;43.080;25.550;2022-12-10T06:26:23;98812.83;;;6.46;92.78
37066;BME280;22981;43.080;25.550;2022-12-10T06:28:52;98804.84;;;6.52;92.81
37066;BME280;22981;43.080;25.550;2022-12-10T06:31:20;98806.46;;;6.60;92.84
37066;BME280;22981;43.080;25.550;2022-12-10T06:33:48;98808.20;;;6.64;92.81
37066;BME280;22981;43.080;25.550;2022-12-10T06:36:16;98807.75;;;6.67;92.92
37066;BME280;22981;43.080;25.550;2022-12-10T06:38:45;98808.38;;;6.69;92.90
37066;BME280;22981;43.080;25.550;2022-12-10T06:41:15;98800.91;;;6.68;92.92
37066;BME280;22981;43.080;25.550;2022-12-10T06:43:43;98808.45;;;6.71;93.02
37066;BME280;22981;43.080;25.550;2022-12-10T06:46:13;98815.20;;;6.74;93.04
37066;BME280;22981;43.080;25.550;2022-12-10T06:48:41;98815.80;;;6.76;93.08
37066;BME280;22981;43.080;25.550;2022-12-10T06:51:11;98807.50;;;6.82;93.13
37066;BME280;22981;43.080;25.550;2022-12-10T06:53:39;98798.44;;;6.89;93.12
37066;BME280;22981;43.080;25.550;2022-12-10T06:56:07;98795.13;;;7.00;93.19
37066;BME280;22981;43.080;25.550;2022-12-10T06:58:35;98783.88;;;7.14;93.20
37066;BME280;22981;43.080;25.550;2022-12-10T07:01:05;98787.89;;;7.30;93.06
37066;BME280;22981;43.080;25.550;2022-12-10T07:03:33;98780.03;;;7.42;92.86
37066;BME280;22981;43.080;25.550;2022-12-10T07:06:02;98759.45;;;7.40;92.71
37066;BME280;22981;43.080;25.550;2022-12-10T07:08:30;98768.92;;;7.61;92.64
37066;BME280;22981;43.080;25.550;2022-12-10T07:10:58;98776.66;;;7.78;92.70
37066;BME280;22981;43.080;25.550;2022-12-10T07:13:26;98762.94;;;7.99;92.46
37066;BME280;22981;43.080;25.550;2022-12-10T07:15:53;98766.80;;;8.22;92.22
37066;BME280;22981;43.080;25.550;2022-12-10T07:18:21;98769.16;;;8.37;91.89
37066;BME280;22981;43.080;25.550;2022-12-10T07:20:48;98771.97;;;8.42;91.70
37066;BME280;22981;43.080;25.550;2022-12-10T07:23:16;98780.34;;;8.45;91.73
37066;BME280;22981;43.080;25.550;2022-12-10T07:25:43;98779.59;;;8.47;91.87
37066;BME280;22981;43.080;25.550;2022-12-10T07:28:11;98770.57;;;8.48;91.95
37066;BME280;22981;43.080;25.550;2022-12-10T07:30:38;98767.67;;;8.50;92.03
37066;BME280;22981;43.080;25.550;2022-12-10T07:33:06;98765.44;;;8.47;92.09
37066;BME280;22981;43.080;25.550;2022-12-10T07:35:33;98772.11;;;8.47;92.23
37066;BME280;22981;43.080;25.550;2022-12-10T07:38:01;98768.34;;;8.45;92.35
37066;BME280;22981;43.080;25.550;2022-12-10T07:40:29;98774.78;;;8.47;92.50
37066;BME280;22981;43.080;25.550;2022-12-10T07:42:57;98777.53;;;8.49;92.51
37066;BME280;22981;43.080;25.550;2022-12-10T07:45:25;98768.48;;;8.50;92.58
37066;BME280;22981;43.080;25.550;2022-12-10T07:47:52;98768.33;;;8.55;92.67
37066;BME280;22981;43.080;25.550;2022-12-10T07:50:20;98763.42;;;8.61;92.61
37066;BME280;22981;43.080;25.550;2022-12-10T07:52:47;98764.45;;;8.69;92.64
37066;BME280;22981;43.080;25.550;2022-12-10T07:55:15;98770.82;;;8.77;92.58
37066;BME280;22981;43.080;25.550;2022-12-10T07:57:43;98770.08;;;8.88;92.50
37066;BME280;22981;43.080;25.550;2022-12-10T08:00:11;98766.33;;;8.98;92.35
37066;BME280;22981;43.080;25.550;2022-12-10T08:02:39;98761.28;;;9.09;92.22
37066;BME280;22981;43.080;25.550;2022-12-10T08:05:07;98750.56;;;9.18;91.94
37066;BME280;22981;43.080;25.550;2022-12-10T08:07:35;98751.05;;;9.26;91.85
37066;BME280;22981;43.080;25.550;2022-12-10T08:10:03;98741.95;;;9.37;91.90
37066;BME280;22981;43.080;25.550;2022-12-10T08:12:31;98747.04;;;9.47;91.86
37066;BME280;22981;43.080;25.550;2022-12-10T08:14:58;98737.47;;;9.61;91.83
37066;BME280;22981;43.080;25.550;2022-12-10T08:17:26;98737.59;;;9.77;91.64
37066;BME280;22981;43.080;25.550;2022-12-10T08:19:54;98723.92;;;10.12;91.37
37066;BME280;22981;43.080;25.550;2022-12-10T08:22:21;98723.64;;;10.48;90.72
37066;BME280;22981;43.080;25.550;2022-12-10T08:24:49;98724.88;;;10.84;89.94
37066;BME280;22981;43.080;25.550;2022-12-10T08:27:16;98723.78;;;11.27;89.16
37066;BME280;22981;43.080;25.550;2022-12-10T08:29:44;98728.55;;;11.73;87.97
37066;BME280;22981;43.080;25.550;2022-12-10T08:32:12;98726.79;;;12.18;86.78
37066;BME280;22981;43.080;25.550;2022-12-10T08:34:39;98719.77;;;12.58;85.67
37066;BME280;22981;43.080;25.550;2022-12-10T08:37:07;98715.13;;;13.00;84.45
37066;BME280;22981;43.080;25.550;2022-12-10T08:39:34;98720.31;;;13.34;83.57
37066;BME280;22981;43.080;25.550;2022-12-10T08:42:02;98716.80;;;13.63;82.90
37066;BME280;22981;43.080;25.550;2022-12-10T08:44:30;98716.59;;;13.72;82.35
37066;BME280;22981;43.080;25.550;2022-12-10T08:46:57;98715.90;;;13.89;81.98
37066;BME280;22981;43.080;25.550;2022-12-10T08:49:25;98711.64;;;13.98;81.69
37066;BME280;22981;43.080;25.550;2022-12-10T08:51:52;98709.31;;;14.17;81.81
37066;BME280;22981;43.080;25.550;2022-12-10T08:54:20;98707.11;;;14.59;81.12
37066;BME280;22981;43.080;25.550;2022-12-10T08:56:47;98695.36;;;14.98;80.04
37066;BME280;22981;43.080;25.550;2022-12-10T08:59:15;98685.16;;;15.26;79.05
37066;BME280;22981;43.080;25.550;2022-12-10T09:01:43;98680.59;;;15.29;79.11
37066;BME280;22981;43.080;25.550;2022-12-10T09:04:10;98670.59;;;15.40;78.72
37066;BME280;22981;43.080;25.550;2022-12-10T09:06:39;98664.41;;;15.29;78.41
37066;BME280;22981;43.080;25.550;2022-12-10T09:09:06;98653.06;;;15.09;79.04
37066;BME280;22981;43.080;25.550;2022-12-10T09:11:34;98659.52;;;14.98;79.31
37066;BME280;22981;43.080;25.550;2022-12-10T09:14:02;98653.34;;;15.18;78.82
37066;BME280;22981;43.080;25.550;2022-12-10T09:16:33;98653.05;;;15.52;78.10
37066;BME280;22981;43.080;25.550;2022-12-10T09:19:01;98644.11;;;15.90;77.11
37066;BME280;22981;43.080;25.550;2022-12-10T09:21:28;98636.70;;;16.24;76.68
37066;BME280;22981;43.080;25.550;2022-12-10T09:23:58;98632.43;;;16.67;75.75
37066;BME280;22981;43.080;25.550;2022-12-10T09:26:26;98629.20;;;17.10;74.77
37066;BME280;22981;43.080;25.550;2022-12-10T09:28:54;98628.32;;;17.48;72.88
37066;BME280;22981;43.080;25.550;2022-12-10T09:31:23;98616.88;;;17.57;71.60
37066;BME280;22981;43.080;25.550;2022-12-10T09:33:52;98612.77;;;17.62;70.20
37066;BME280;22981;43.080;25.550;2022-12-10T09:36:21;98608.76;;;17.57;69.96
37066;BME280;22981;43.080;25.550;2022-12-10T09:38:49;98602.73;;;17.62;68.96
37066;BME280;22981;43.080;25.550;2022-12-10T09:44:21;98599.92;;;17.46;68.36
37066;BME280;22981;43.080;25.550;2022-12-10T09:46:57;98585.03;;;17.46;67.75
37066;BME280;22981;43.080;25.550;2022-12-10T09:52:08;98556.15;;;17.92;66.17
37066;BME280;22981;43.080;25.550;2022-12-10T09:54:40;98546.66;;;18.13;64.76
37066;BME280;22981;43.080;25.550;2022-12-10T09:57:07;98547.81;;;18.07;64.00
37066;BME280;22981;43.080;25.550;2022-12-10T09:59:38;98547.41;;;17.97;63.40
37066;BME280;22981;43.080;25.550;2022-12-10T10:02:30;98533.29;;;17.79;63.21
37066;BME280;22981;43.080;25.550;2022-12-10T10:07:43;98522.55;;;17.93;62.50
37066;BME280;22981;43.080;25.550;2022-12-10T10:10:28;98519.50;;;18.18;60.65
37066;BME280;22981;43.080;25.550;2022-12-10T10:13:14;98515.37;;;18.42;60.04
37066;BME280;22981;43.080;25.550;2022-12-10T10:15:44;98517.47;;;18.64;59.28
37066;BME280;22981;43.080;25.550;2022-12-10T10:21:00;98512.47;;;18.90;56.73
37066;BME280;22981;43.080;25.550;2022-12-10T10:23:28;98509.53;;;19.03;56.64
37066;BME280;22981;43.080;25.550;2022-12-10T10:25:56;98503.57;;;19.17;55.82
37066;BME280;22981;43.080;25.550;2022-12-10T10:28:24;98456.73;;;18.98;55.45
37066;BME280;22981;43.080;25.550;2022-12-10T10:30:53;98495.09;;;19.35;55.55
37066;BME280;22981;43.080;25.550;2022-12-10T10:33:23;98492.03;;;19.39;55.68
37066;BME280;22981;43.080;25.550;2022-12-10T10:35:56;98485.20;;;19.42;55.92
37066;BME280;22981;43.080;25.550;2022-12-10T10:38:27;98478.11;;;19.43;55.87
37066;BME280;22981;43.080;25.550;2022-12-10T10:40:57;98468.67;;;19.55;55.26
37066;BME280;22981;43.080;25.550;2022-12-10T10:43:32;98466.64;;;19.60;55.05
37066;BME280;22981;43.080;25.550;2022-12-10T10:46:03;98463.05;;;19.65;54.64
37066;BME280;22981;43.080;25.550;2022-12-10T10:48:34;98461.50;;;19.75;53.70
37066;BME280;22981;43.080;25.550;2022-12-10T10:53:51;98466.30;;;19.78;52.91
37066;BME280;22981;43.080;25.550;2022-12-10T10:56:24;98463.14;;;19.73;52.57
37066;BME280;22981;43.080;25.550;2022-12-10T10:58:55;98459.38;;;19.72;52.66
37066;BME280;22981;43.080;25.550;2022-12-10T11:01:25;98460.98;;;19.73;52.87
37066;BME280;22981;43.080;25.550;2022-12-10T11:03:57;98458.31;;;19.84;51.80
37066;BME280;22981;43.080;25.550;2022-12-10T11:06:25;98453.20;;;19.94;51.97
37066;BME280;22981;43.080;25.550;2022-12-10T11:08:56;98447.45;;;19.95;51.58
37066;BME280;22981;43.080;25.550;2022-12-10T11:11:34;98447.08;;;19.88;51.82
37066;BME280;22981;43.080;25.550;2022-12-10T11:14:22;98440.84;;;19.63;51.76
37066;BME280;22981;43.080;25.550;2022-12-10T11:16:49;98444.16;;;19.32;52.03
37066;BME280;22981;43.080;25.550;2022-12-10T11:19:20;98439.56;;;19.03;52.73
37066;BME280;22981;43.080;25.550;2022-12-10T11:21:48;98449.05;;;18.89;53.04
37066;BME280;22981;43.080;25.550;2022-12-10T11:24:19;98446.80;;;18.77;53.28
37066;BME280;22981;43.080;25.550;2022-12-10T11:27:00;98442.06;;;18.66;52.95
37066;BME280;22981;43.080;25.550;2022-12-10T11:37:44;98423.33;;;18.70;49.98
37066;BME280;22981;43.080;25.550;2022-12-10T11:46:01;98423.79;;;18.74;50.35
37066;BME280;22981;43.080;25.550;2022-12-10T11:48:41;98425.67;;;18.76;49.49
37066;BME280;22981;43.080;25.550;2022-12-10T11:51:11;98426.04;;;18.70;49.93
37066;BME280;22981;43.080;25.550;2022-12-10T11:56:49;98425.77;;;18.52;49.94
37066;BME280;22981;43.080;25.550;2022-12-10T12:05:05;98410.09;;;18.49;49.94
37066;BME280;22981;43.080;25.550;2022-12-10T12:07:45;98410.77;;;18.41;50.46
37066;BME280;22981;43.080;25.550;2022-12-10T12:10:24;98416.27;;;18.36;49.89
37066;BME280;22981;43.080;25.550;2022-12-10T12:12:59;98401.84;;;18.41;49.84
37066;BME280;22981;43.080;25.550;2022-12-10T12:15:43;98401.56;;;18.42;49.63
37066;BME280;22981;43.080;25.550;2022-12-10T12:18:20;98395.19;;;18.49;49.43
37066;BME280;22981;43.080;25.550;2022-12-10T12:20:59;98392.69;;;18.53;49.48
37066;BME280;22981;43.080;25.550;2022-12-10T12:26:13;98387.48;;;18.40;49.33
37066;BME280;22981;43.080;25.550;2022-12-10T12:28:41;98385.27;;;18.29;49.86
37066;BME280;22981;43.080;25.550;2022-12-10T12:31:18;98389.94;;;18.23;49.55
37066;BME280;22981;43.080;25.550;2022-12-10T12:33:50;98379.11;;;18.23;49.92
37066;BME280;22981;43.080;25.550;2022-12-10T12:36:25;98370.05;;;18.14;50.48
37066;BME280;22981;43.080;25.550;2022-12-10T12:39:01;98376.69;;;18.05;50.93
37066;BME280;22981;43.080;25.550;2022-12-10T12:41:34;98365.23;;;17.94;51.53
37066;BME280;22981;43.080;25.550;2022-12-10T12:44:21;98365.06;;;17.86;52.06
37066;BME280;22981;43.080;25.550;2022-12-10T12:46:48;98363.53;;;17.80;52.48
37066;BME280;22981;43.080;25.550;2022-12-10T12:52:00;98370.21;;;17.66;53.04
37066;BME280;22981;43.080;25.550;2022-12-10T12:54:26;98369.43;;;17.63;53.18
37066;BME280;22981;43.080;25.550;2022-12-10T12:57:14;98370.28;;;17.61;53.35
37066;BME280;22981;43.080;25.550;2022-12-10T13:05:31;98386.17;;;17.46;53.91
37066;BME280;22981;43.080;25.550;2022-12-10T13:13:34;98361.87;;;17.22;54.64
37066;BME280;22981;43.080;25.550;2022-12-10T13:15:53;98369.52;;;17.15;54.95
37066;BME280;22981;43.080;25.550;2022-12-10T13:18:33;98364.45;;;17.08;55.14
37066;BME280;22981;43.080;25.550;2022-12-10T13:23:30;98362.45;;;16.95;55.46
37066;BME280;22981;43.080;25.550;2022-12-10T13:26:00;98353.85;;;16.90;55.57
37066;BME280;22981;43.080;25.550;2022-12-10T13:31:21;98351.40;;;16.91;55.65
37066;BME280;22981;43.080;25.550;2022-12-10T13:34:05;98348.19;;;16.89;55.71
37066;BME280;22981;43.080;25.550;2022-12-10T13:36:37;98352.06;;;16.83;55.91
37066;BME280;22981;43.080;25.550;2022-12-10T13:42:20;98344.59;;;16.72;56.10
37066;BME280;22981;43.080;25.550;2022-12-10T13:49:47;98353.23;;;16.43;56.90
37066;BME280;22981;43.080;25.550;2022-12-10T13:52:19;98364.40;;;16.34;57.07
37066;BME280;22981;43.080;25.550;2022-12-10T14:00:57;98355.37;;;16.14;57.45
37066;BME280;22981;43.080;25.550;2022-12-10T14:03:38;98353.81;;;16.08;57.51
37066;BME280;22981;43.080;25.550;2022-12-10T14:06:20;98352.22;;;16.05;57.62
37066;BME280;22981;43.080;25.550;2022-12-10T14:11:25;98351.47;;;15.96;57.73
37066;BME280;22981;43.080;25.550;2022-12-10T14:13:54;98341.52;;;15.94;57.81
37066;BME280;22981;43.080;25.550;2022-12-10T14:16:25;98340.47;;;15.88;58.18
37066;BME280;22981;43.080;25.550;2022-12-10T14:18:58;98341.36;;;15.78;58.20
37066;BME280;22981;43.080;25.550;2022-12-10T14:21:31;98335.62;;;15.87;57.63
37066;BME280;22981;43.080;25.550;2022-12-10T14:23:56;98325.91;;;15.89;57.78
37066;BME280;22981;43.080;25.550;2022-12-10T14:26:29;98326.47;;;15.83;58.07
37066;BME280;22981;43.080;25.550;2022-12-10T14:31:39;98336.56;;;15.62;59.02
37066;BME280;22981;43.080;25.550;2022-12-10T14:34:08;98343.39;;;15.49;59.52
37066;BME280;22981;43.080;25.550;2022-12-10T14:36:44;98342.11;;;15.42;59.83
37066;BME280;22981;43.080;25.550;2022-12-10T14:39:38;98334.86;;;15.35;60.16
37066;BME280;22981;43.080;25.550;2022-12-10T14:41:46;98319.80;;;15.26;60.54
37066;BME280;22981;43.080;25.550;2022-12-10T14:44:16;98315.53;;;15.15;60.97
37066;BME280;22981;43.080;25.550;2022-12-10T14:46:49;98305.08;;;15.08;61.33
37066;BME280;22981;43.080;25.550;2022-12-10T14:49:23;98308.88;;;14.94;61.96
37066;BME280;22981;43.080;25.550;2022-12-10T14:51:47;98308.88;;;14.94;61.96
37066;BME280;22981;43.080;25.550;2022-12-10T14:54:28;98317.52;;;14.94;61.89
37066;BME280;22981;43.080;25.550;2022-12-10T14:57:00;98315.65;;;14.89;62.05
37066;BME280;22981;43.080;25.550;2022-12-10T14:59:38;98314.59;;;14.85;62.14
37066;BME280;22981;43.080;25.550;2022-12-10T15:02:07;98306.25;;;14.87;62.14
37066;BME280;22981;43.080;25.550;2022-12-10T15:04:41;98304.61;;;14.86;62.21
37066;BME280;22981;43.080;25.550;2022-12-10T15:07:21;98302.75;;;14.81;62.33
37066;BME280;22981;43.080;25.550;2022-12-10T15:09:46;98305.44;;;14.81;62.50
37066;BME280;22981;43.080;25.550;2022-12-10T15:12:27;98299.27;;;14.75;62.74
37066;BME280;22981;43.080;25.550;2022-12-10T15:14:48;98291.47;;;14.71;62.94
37066;BME280;22981;43.080;25.550;2022-12-10T15:17:36;98300.64;;;14.68;63.06
37066;BME280;22981;43.080;25.550;2022-12-10T15:22:40;98305.48;;;14.68;62.95
37066;BME280;22981;43.080;25.550;2022-12-10T15:25:23;98302.80;;;14.71;62.91
37066;BME280;22981;43.080;25.550;2022-12-10T15:27:55;98297.69;;;14.69;63.04
37066;BME280;22981;43.080;25.550;2022-12-10T15:30:32;98284.78;;;14.61;63.38
37066;BME280;22981;43.080;25.550;2022-12-10T15:32:54;98281.30;;;14.53;63.65
37066;BME280;22981;43.080;25.550;2022-12-10T15:35:21;98284.27;;;14.44;64.02
37066;BME280;22981;43.080;25.550;2022-12-10T15:37:50;98283.45;;;14.38;64.36
37066;BME280;22981;43.080;25.550;2022-12-10T15:40:30;98270.83;;;14.28;64.67
37066;BME280;22981;43.080;25.550;2022-12-10T15:42:56;98264.91;;;14.21;64.86
37066;BME280;22981;43.080;25.550;2022-12-10T15:45:37;98267.62;;;14.19;64.89
37066;BME280;22981;43.080;25.550;2022-12-10T15:47:58;98253.62;;;14.17;64.84
37066;BME280;22981;43.080;25.550;2022-12-10T15:50:26;98259.81;;;14.20;64.83
37066;BME280;22981;43.080;25.550;2022-12-10T15:52:58;98256.31;;;14.17;64.91
37066;BME280;22981;43.080;25.550;2022-12-10T15:55:25;98262.52;;;14.15;65.00
37066;BME280;22981;43.080;25.550;2022-12-10T15:57:53;98269.52;;;14.11;65.06
37066;BME280;22981;43.080;25.550;2022-12-10T16:00:23;98263.33;;;14.08;65.15
37066;BME280;22981;43.080;25.550;2022-12-10T16:03:05;98256.34;;;14.09;65.07
37066;BME280;22981;43.080;25.550;2022-12-10T16:05:32;98257.14;;;14.07;65.15
37066;BME280;22981;43.080;25.550;2022-12-10T16:08:12;98257.67;;;14.04;65.22
37066;BME280;22981;43.080;25.550;2022-12-10T16:10:40;98256.61;;;14.00;65.33
37066;BME280;22981;43.080;25.550;2022-12-10T16:13:23;98259.31;;;13.97;65.44
37066;BME280;22981;43.080;25.550;2022-12-10T16:15:54;98261.73;;;13.94;65.51
37066;BME280;22981;43.080;25.550;2022-12-10T16:18:24;98254.48;;;13.97;65.40
37066;BME280;22981;43.080;25.550;2022-12-10T16:20:51;98245.58;;;13.99;65.27
37066;BME280;22981;43.080;25.550;2022-12-10T16:23:19;98248.53;;;14.00;65.26
37066;BME280;22981;43.080;25.550;2022-12-10T16:25:47;98246.38;;;13.99;65.25
37066;BME280;22981;43.080;25.550;2022-12-10T16:28:17;98247.47;;;13.98;65.18
37066;BME280;22981;43.080;25.550;2022-12-10T16:30:47;98240.74;;;13.98;65.18
37066;BME280;22981;43.080;25.550;2022-12-10T16:33:16;98228.35;;;14.00;65.09
37066;BME280;22981;43.080;25.550;2022-12-10T16:35:47;98225.41;;;14.01;65.00
37066;BME280;22981;43.080;25.550;2022-12-10T16:38:16;98224.06;;;14.01;64.91
37066;BME280;22981;43.080;25.550;2022-12-10T16:40:44;98224.06;;;14.01;64.83
37066;BME280;22981;43.080;25.550;2022-12-10T16:43:18;98210.31;;;14.08;64.63
37066;BME280;22981;43.080;25.550;2022-12-10T16:45:46;98216.50;;;14.11;64.48
37066;BME280;22981;43.080;25.550;2022-12-10T16:48:13;98214.05;;;14.17;64.22
37066;BME280;22981;43.080;25.550;2022-12-10T16:50:42;98211.91;;;14.22;64.06
37066;BME280;22981;43.080;25.550;2022-12-10T16:53:21;98206.50;;;14.24;63.92